Time;durP1;ratioP1;P1;durP2;ratioP2;P2;SDS_P1;SDS_P2;PMS_P1;PMS_P2;Temp;Humidity;BMP_temperature;BMP_pressure;BME280_temperature;BME280_humidity;BME280_pressure;Samples;Min_cycle;Max_cycle;Signal;HPM_P1;HPM_P2
2023/05/11 00:01:32;;;;;;;10.38;9.27;;;12.10;99.90;;;;;;4995197;28;20514;-79
2023/05/11 00:03:58;;;;;;;13.25;9.55;;;12.10;99.90;;;;;;4995135;28;20042;-79
2023/05/11 00:06:25;;;;;;;13.68;9.50;;;12.10;99.90;;;;;;4978995;28;20057;-79
2023/05/11 00:08:51;;;;;;;13.10;10.02;;;12.10;99.90;;;;;;4978973;28;20072;-79
2023/05/11 00:11:17;;;;;;;13.35;10.20;;;12.10;99.90;;;;;;4994964;28;20042;-79
2023/05/11 00:13:44;;;;;;;11.48;9.25;;;12.10;99.90;;;;;;4995253;28;20061;-79
2023/05/11 00:16:10;;;;;;;12.52;10.70;;;12.10;99.90;;;;;;4994988;28;20354;-79
2023/05/11 00:18:35;;;;;;;14.00;10.68;;;12.10;99.90;;;;;;5012299;28;20049;-79
2023/05/11 00:21:01;;;;;;;13.05;9.07;;;12.10;99.90;;;;;;5012872;28;20045;-79
2023/05/11 00:23:27;;;;;;;13.50;9.45;;;12.10;99.90;;;;;;4995047;28;20077;-80
2023/05/11 00:25:53;;;;;;;10.23;9.13;;;12.20;99.90;;;;;;5011953;28;20042;-80
2023/05/11 00:28:19;;;;;;;15.27;10.25;;;12.20;99.90;;;;;;5012304;28;20046;-79
2023/05/11 00:30:45;;;;;;;14.82;11.25;;;12.20;99.90;;;;;;4995501;28;20460;-80
2023/05/11 00:33:11;;;;;;;13.07;10.32;;;12.30;99.90;;;;;;4997197;28;20091;-79
2023/05/11 00:35:36;;;;;;;15.07;11.27;;;12.20;99.90;;;;;;4998721;28;20357;-79
2023/05/11 00:38:02;;;;;;;11.63;9.20;;;12.20;99.90;;;;;;5015506;28;20134;-79
2023/05/11 00:40:30;;;;;;;13.65;9.00;;;12.30;99.90;;;;;;4998811;28;20053;-79
2023/05/11 00:42:56;;;;;;;12.38;8.98;;;12.30;99.90;;;;;;5016306;28;20141;-79
2023/05/11 00:45:22;;;;;;;13.45;9.65;;;12.30;99.90;;;;;;4998175;28;20235;-79
2023/05/11 00:47:48;;;;;;;8.88;7.40;;;12.30;99.90;;;;;;5015825;28;20117;-79
2023/05/11 00:50:14;;;;;;;13.88;10.60;;;12.40;99.90;;;;;;5015849;28;20126;-79
2023/05/11 00:52:41;;;;;;;12.70;9.63;;;12.40;99.90;;;;;;4998071;28;20348;-79
2023/05/11 00:55:07;;;;;;;13.07;10.65;;;12.40;99.90;;;;;;4998076;28;20058;-79
2023/05/11 00:57:35;;;;;;;11.45;10.00;;;12.40;99.90;;;;;;5015673;28;20108;-79
2023/05/11 01:00:05;;;;;;;14.18;10.55;;;12.40;99.90;;;;;;4998148;28;20045;-79
2023/05/11 01:02:32;;;;;;;13.93;10.55;;;12.40;99.90;;;;;;5015190;28;20474;-79
2023/05/11 01:04:58;;;;;;;17.73;11.25;;;12.40;99.90;;;;;;4997708;28;20049;-80
2023/05/11 01:07:50;;;;;;;15.10;12.10;;;12.30;99.90;;;;;;5014896;28;20553;-80
2023/05/11 01:10:47;;;;;;;14.82;12.13;;;12.30;99.90;;;;;;4996148;28;20060;-79
2023/05/11 01:13:38;;;;;;;17.30;12.50;;;12.20;99.90;;;;;;4992855;28;20060;-79
2023/05/11 01:16:33;;;;;;;16.25;12.30;;;12.20;99.90;;;;;;4998193;28;20111;-80
2023/05/11 01:19:04;;;;;;;16.35;12.02;;;12.20;99.90;;;;;;4995412;28;20093;-79
2023/05/11 01:21:32;;;;;;;18.65;13.32;;;12.20;99.90;;;;;;4997365;28;20112;-79
2023/05/11 01:24:20;;;;;;;18.58;12.45;;;12.20;99.90;;;;;;4997834;28;20066;-79
2023/05/11 01:27:03;;;;;;;16.42;13.52;;;12.20;99.90;;;;;;4997728;28;20073;-79
2023/05/11 01:30:01;;;;;;;19.30;14.15;;;12.10;99.90;;;;;;4997410;28;20381;-79
2023/05/11 01:32:31;;;;;;;16.20;12.88;;;12.00;99.90;;;;;;4988149;28;20383;-79
2023/05/11 01:35:05;;;;;;;20.83;13.75;;;12.00;99.90;;;;;;4981353;28;20060;-79
2023/05/11 01:37:32;;;;;;;18.10;12.60;;;12.00;99.90;;;;;;4997053;28;20045;-79
2023/05/11 01:40:12;;;;;;;19.60;13.43;;;12.00;99.90;;;;;;5014484;28;20129;-79
2023/05/11 01:42:44;;;;;;;15.52;12.02;;;12.00;99.90;;;;;;4993148;28;20497;-79
2023/05/11 01:45:11;;;;;;;16.25;10.85;;;12.10;99.90;;;;;;4994679;28;20060;-80
2023/05/11 01:47:40;;;;;;;16.30;11.40;;;12.10;99.90;;;;;;4993647;28;20046;-80
2023/05/11 01:50:07;;;;;;;17.67;11.90;;;12.00;99.90;;;;;;4994732;28;20109;-79
2023/05/11 01:52:35;;;;;;;17.33;12.18;;;12.00;99.90;;;;;;4994635;28;20491;-79
2023/05/11 01:55:04;;;;;;;20.52;14.73;;;12.00;99.90;;;;;;4994695;28;20050;-79
2023/05/11 01:57:35;;;;;;;18.55;13.82;;;12.00;99.90;;;;;;4993696;28;20062;-80
2023/05/11 02:00:03;;;;;;;18.02;13.30;;;12.00;99.90;;;;;;4995093;28;20102;-82
2023/05/11 02:02:29;;;;;;;18.75;14.73;;;12.10;99.90;;;;;;4993386;28;20086;-80
2023/05/11 02:04:57;;;;;;;19.38;14.65;;;12.10;99.90;;;;;;4993451;28;20054;-80
2023/05/11 02:07:26;;;;;;;18.77;14.27;;;12.10;99.90;;;;;;4993500;28;20056;-80
2023/05/11 02:09:53;;;;;;;19.50;15.07;;;12.10;99.90;;;;;;4994321;28;20082;-80
2023/05/11 02:12:21;;;;;;;27.42;17.38;;;12.10;99.90;;;;;;4994478;28;20109;-80
2023/05/11 02:14:49;;;;;;;35.38;17.95;;;12.10;99.90;;;;;;4994182;28;20043;-80
2023/05/11 02:17:16;;;;;;;26.77;16.83;;;12.00;99.90;;;;;;4993864;28;20498;-80
2023/05/11 02:19:44;;;;;;;27.77;17.52;;;12.10;99.90;;;;;;4993266;28;20058;-80
2023/05/11 02:22:11;;;;;;;22.42;14.85;;;12.10;99.90;;;;;;4977196;28;20046;-80
2023/05/11 02:24:37;;;;;;;26.65;14.68;;;12.10;99.90;;;;;;4993282;28;20086;-80
2023/05/11 02:27:03;;;;;;;24.92;15.07;;;12.10;99.90;;;;;;4994098;28;20057;-80
2023/05/11 02:29:29;;;;;;;24.55;14.27;;;12.10;99.90;;;;;;4994094;28;20531;-80
2023/05/11 02:32:05;;;;;;;19.08;12.40;;;12.00;99.90;;;;;;4993468;28;20084;-80
2023/05/11 02:34:39;;;;;;;27.60;13.98;;;12.00;99.90;;;;;;4993287;28;20054;-80
2023/05/11 02:37:11;;;;;;;17.42;13.23;;;12.00;99.90;;;;;;4994188;28;20054;-80
2023/05/11 02:39:39;;;;;;;20.75;13.75;;;12.00;99.90;;;;;;4994368;28;20399;-80
2023/05/11 02:42:14;;;;;;;35.08;14.27;;;11.90;99.90;;;;;;4992647;28;20137;-80
2023/05/11 02:44:49;;;;;;;29.00;14.02;;;11.90;99.90;;;;;;4993980;28;20177;-81
2023/05/11 02:47:19;;;;;;;23.65;13.77;;;11.90;99.90;;;;;;4994164;28;20543;-80
2023/05/11 02:49:52;;;;;;;18.58;11.55;;;11.90;99.90;;;;;;4992648;28;20417;-80
2023/05/11 02:52:20;;;;;;;16.67;11.32;;;11.90;99.90;;;;;;4993580;28;20047;-80
2023/05/11 02:54:49;;;;;;;13.35;9.90;;;11.80;99.90;;;;;;4993312;28;20054;-80
2023/05/11 02:57:15;;;;;;;14.23;9.50;;;11.90;99.90;;;;;;4993136;28;20058;-80
2023/05/11 02:59:40;;;;;;;13.57;10.82;;;11.90;99.90;;;;;;4993444;28;20053;-80
2023/05/11 03:02:07;;;;;;;17.88;11.65;;;11.80;99.90;;;;;;4993427;28;20050;-80
2023/05/11 03:04:33;;;;;;;17.75;11.32;;;11.80;99.90;;;;;;4993422;28;20482;-79
2023/05/11 03:06:59;;;;;;;19.17;12.27;;;11.80;99.90;;;;;;4992516;28;20455;-80
2023/05/11 03:09:25;;;;;;;22.30;13.70;;;11.80;99.90;;;;;;4992387;28;20082;-80
2023/05/11 03:11:50;;;;;;;22.80;15.32;;;11.70;99.90;;;;;;4992354;28;20129;-80
2023/05/11 03:14:16;;;;;;;27.25;17.13;;;11.70;99.90;;;;;;4976252;28;20149;-79
2023/05/11 03:16:43;;;;;;;35.92;22.52;;;11.80;99.90;;;;;;4992219;28;20054;-80
2023/05/11 03:19:10;;;;;;;55.55;24.35;;;11.80;99.90;;;;;;4993749;28;20065;-80
2023/05/11 03:21:37;;;;;;;86.53;34.35;;;11.70;99.90;;;;;;4993289;28;20046;-79
2023/05/11 03:24:05;;;;;;;53.85;27.88;;;11.70;99.90;;;;;;4992809;28;20104;-79
2023/05/11 03:26:33;;;;;;;70.93;31.75;;;11.70;99.90;;;;;;4993196;28;20111;-79
2023/05/11 03:29:01;;;;;;;99.82;29.90;;;11.70;99.90;;;;;;4992186;28;20061;-79
2023/05/11 03:31:26;;;;;;;72.90;27.67;;;11.70;99.90;;;;;;4993143;28;20090;-79
2023/05/11 03:33:52;;;;;;;84.68;29.75;;;11.70;99.90;;;;;;4991995;28;20050;-79
2023/05/11 03:36:19;;;;;;;70.10;32.60;;;11.70;99.90;;;;;;4992140;28;20089;-79
2023/05/11 03:38:47;;;;;;;117.00;41.47;;;11.80;99.90;;;;;;4992450;28;20499;-79
2023/05/11 03:41:16;;;;;;;77.22;31.13;;;11.70;99.90;;;;;;4978625;28;20470;-79
2023/05/11 03:43:46;;;;;;;97.35;34.42;;;11.80;99.90;;;;;;4995582;28;20080;-79
2023/05/11 03:46:15;;;;;;;99.63;32.40;;;11.80;99.90;;;;;;5012661;28;20129;-78
2023/05/11 03:48:42;;;;;;;121.28;39.25;;;11.80;99.90;;;;;;5013200;28;20121;-79
2023/05/11 03:51:09;;;;;;;92.57;31.40;;;11.70;99.90;;;;;;4995161;28;20049;-79
2023/05/11 03:53:35;;;;;;;97.60;35.83;;;11.80;99.90;;;;;;4995288;28;20105;-79
2023/05/11 03:56:03;;;;;;;66.18;28.00;;;11.70;99.90;;;;;;4978973;28;20438;-80
2023/05/11 03:58:30;;;;;;;70.30;34.22;;;11.70;99.90;;;;;;4995082;28;20049;-79
2023/05/11 04:00:56;;;;;;;40.35;23.27;;;11.70;99.90;;;;;;4995867;28;20104;-79
2023/05/11 04:03:22;;;;;;;47.15;25.55;;;11.70;99.90;;;;;;5012375;28;20049;-77
2023/05/11 04:05:47;;;;;;;62.53;32.35;;;11.60;99.90;;;;;;4979207;28;20048;-78
2023/05/11 04:08:13;;;;;;;67.80;29.30;;;11.60;99.90;;;;;;4996956;28;20050;-78
2023/05/11 04:10:39;;;;;;;67.60;34.75;;;11.60;99.90;;;;;;5016687;28;20053;-78
2023/05/11 04:13:05;;;;;;;54.17;30.15;;;11.60;99.90;;;;;;4998725;28;20053;-78
2023/05/11 04:15:30;;;;;;;48.72;27.05;;;11.60;99.90;;;;;;4998513;28;20054;-77
2023/05/11 04:17:56;;;;;;;46.17;26.92;;;11.50;99.90;;;;;;5015964;28;20054;-78
2023/05/11 04:20:22;;;;;;;48.30;27.45;;;11.50;99.90;;;;;;5015953;28;20089;-81
2023/05/11 04:22:47;;;;;;;48.05;27.25;;;11.50;99.90;;;;;;5015952;28;20048;-79
2023/05/11 04:25:13;;;;;;;44.72;24.38;;;11.50;99.90;;;;;;5015909;28;20049;-78
2023/05/11 04:27:39;;;;;;;41.45;22.75;;;11.50;99.90;;;;;;5015866;28;20092;-79
2023/05/11 04:30:06;;;;;;;39.17;21.63;;;11.50;99.90;;;;;;4998922;28;20062;-78
2023/05/11 04:32:32;;;;;;;36.45;21.25;;;11.50;99.90;;;;;;4998111;28;20077;-78
2023/05/11 04:34:58;;;;;;;36.10;22.85;;;11.50;99.90;;;;;;5015808;28;20375;-78
2023/05/11 04:37:24;;;;;;;34.33;19.10;;;11.50;99.90;;;;;;4998542;28;20046;-78
2023/05/11 04:39:49;;;;;;;29.30;16.90;;;11.50;99.90;;;;;;5015702;28;20103;-78
2023/05/11 04:42:15;;;;;;;29.35;18.20;;;11.50;99.90;;;;;;4981753;28;20482;-79
2023/05/11 04:44:41;;;;;;;31.67;19.48;;;11.60;99.90;;;;;;4998793;28;20054;-78
2023/05/11 04:47:06;;;;;;;27.20;17.13;;;11.50;99.90;;;;;;4998051;28;20038;-77
2023/05/11 04:49:32;;;;;;;54.03;20.38;;;11.50;99.90;;;;;;5015080;28;20107;-78
2023/05/11 04:51:58;;;;;;;25.15;15.15;;;11.50;99.90;;;;;;4997777;28;20381;-78
2023/05/11 04:54:23;;;;;;;29.70;17.48;;;11.60;99.90;;;;;;4998456;28;20073;-78
2023/05/11 04:56:49;;;;;;;43.40;18.35;;;11.60;99.90;;;;;;5014986;28;20046;-78
2023/05/11 04:59:15;;;;;;;46.38;20.58;;;11.60;99.90;;;;;;5015063;28;20133;-79
2023/05/11 05:01:40;;;;;;;38.78;20.05;;;11.60;99.90;;;;;;4997596;28;20058;-78
2023/05/11 05:04:06;;;;;;;40.50;19.85;;;11.60;99.90;;;;;;4997659;28;20072;-78
2023/05/11 05:06:32;;;;;;;23.30;15.90;;;11.60;99.90;;;;;;4997659;28;20053;-79
2023/05/11 05:08:58;;;;;;;33.15;16.77;;;11.60;99.90;;;;;;5014823;28;20107;-79
2023/05/11 05:11:23;;;;;;;25.30;16.33;;;11.60;99.90;;;;;;4997242;28;20138;-79
2023/05/11 05:13:49;;;;;;;27.95;16.33;;;11.60;99.90;;;;;;5014871;28;20046;-79
2023/05/11 05:16:15;;;;;;;32.80;19.55;;;11.60;99.90;;;;;;5014409;28;20045;-78
2023/05/11 05:18:41;;;;;;;41.53;20.73;;;11.60;99.90;;;;;;4996872;28;20136;-80
2023/05/11 05:21:06;;;;;;;38.63;19.92;;;11.60;99.90;;;;;;4997349;28;20120;-80
2023/05/11 05:23:32;;;;;;;36.92;21.77;;;11.70;99.90;;;;;;5014686;28;20057;-80
2023/05/11 05:25:58;;;;;;;42.58;23.08;;;11.70;99.90;;;;;;5014818;28;20120;-79
2023/05/11 05:28:23;;;;;;;34.65;22.15;;;11.70;99.90;;;;;;4996785;28;20045;-79
2023/05/11 05:30:49;;;;;;;33.92;20.45;;;11.80;99.90;;;;;;5014708;28;20178;-79
2023/05/11 05:33:15;;;;;;;30.58;19.30;;;11.80;99.90;;;;;;5014525;28;20054;-79
2023/05/11 05:35:42;;;;;;;30.50;19.42;;;11.90;99.90;;;;;;5014344;28;20451;-79
2023/05/11 05:38:08;;;;;;;23.08;15.43;;;11.90;99.90;;;;;;5014822;28;20058;-79
2023/05/11 05:40:36;;;;;;;27.17;16.75;;;11.90;99.90;;;;;;4996702;28;20061;-79
2023/05/11 05:43:02;;;;;;;38.92;18.52;;;12.00;99.90;;;;;;4997354;28;20084;-79
2023/05/11 05:45:28;;;;;;;32.20;17.73;;;12.00;99.90;;;;;;4996555;28;20049;-79
2023/05/11 05:47:53;;;;;;;37.83;19.50;;;12.00;99.90;;;;;;5014673;28;20058;-78
2023/05/11 05:50:19;;;;;;;33.75;18.70;;;11.90;99.90;;;;;;4980727;28;20125;-79
2023/05/11 05:52:45;;;;;;;34.42;20.08;;;11.90;99.90;;;;;;5014371;28;20474;-79
2023/05/11 05:55:11;;;;;;;38.22;17.60;;;11.90;99.90;;;;;;4996883;28;20046;-79
2023/05/11 05:57:36;;;;;;;37.55;17.33;;;11.90;99.90;;;;;;5013835;28;20046;-79
2023/05/11 06:00:02;;;;;;;30.33;17.15;;;11.90;99.90;;;;;;4996660;28;20054;-79
2023/05/11 06:02:28;;;;;;;51.50;18.45;;;11.90;99.90;;;;;;4996667;28;20129;-79
2023/05/11 06:04:54;;;;;;;61.20;21.33;;;12.00;99.90;;;;;;5014142;28;20511;-79
2023/05/11 06:07:19;;;;;;;47.47;18.17;;;12.00;99.90;;;;;;4980479;28;20048;-79
2023/05/11 06:09:45;;;;;;;35.72;17.75;;;12.00;99.90;;;;;;4996001;28;20100;-78
2023/05/11 06:12:11;;;;;;;54.50;21.20;;;12.00;99.90;;;;;;5013570;28;20042;-79
2023/05/11 06:14:36;;;;;;;43.47;15.80;;;12.00;99.90;;;;;;5013473;28;20042;-78
2023/05/11 06:17:02;;;;;;;42.80;17.85;;;12.00;99.90;;;;;;5013796;28;20065;-78
2023/05/11 06:19:28;;;;;;;28.75;15.95;;;12.10;99.90;;;;;;5013535;28;20049;-79
2023/05/11 06:21:53;;;;;;;49.35;19.45;;;12.10;99.90;;;;;;4996740;28;20143;-79
2023/05/11 06:24:19;;;;;;;76.30;21.25;;;12.10;99.90;;;;;;5013593;28;20046;-78
2023/05/11 06:26:45;;;;;;;63.22;20.15;;;12.10;99.90;;;;;;4996158;28;20046;-78
2023/05/11 06:29:10;;;;;;;28.92;17.10;;;12.10;99.90;;;;;;5013381;28;20046;-77
2023/05/11 06:31:36;;;;;;;56.78;18.63;;;12.20;99.90;;;;;;5012395;28;20042;-79
2023/05/11 06:34:02;;;;;;;63.47;20.17;;;12.10;99.90;;;;;;4996054;28;20053;-79
2023/05/11 06:36:27;;;;;;;37.65;18.88;;;12.10;99.90;;;;;;5012886;28;20086;-79
2023/05/11 06:38:53;;;;;;;27.00;17.75;;;12.20;99.90;;;;;;4996027;28;20096;-79
2023/05/11 06:41:20;;;;;;;35.58;18.02;;;12.30;99.90;;;;;;5013359;28;20420;-79
2023/05/11 06:43:45;;;;;;;20.75;14.73;;;12.30;99.90;;;;;;4995794;28;20062;-80
2023/05/11 06:46:15;;;;;;;31.42;16.35;;;12.40;99.90;;;;;;5013523;28;20052;-76
2023/05/11 06:48:41;;;;;;;27.50;17.20;;;12.40;99.90;;;;;;5012821;28;20062;-78
2023/05/11 06:51:10;;;;;;;33.33;18.33;;;12.50;99.90;;;;;;4996079;28;20466;-80
2023/05/11 06:53:36;;;;;;;46.00;18.75;;;12.50;99.90;;;;;;4995744;28;20140;-80
2023/05/11 06:56:03;;;;;;;26.83;17.40;;;12.60;99.90;;;;;;4996011;28;20085;-79
2023/05/11 06:58:28;;;;;;;34.00;17.75;;;12.70;99.90;;;;;;4996167;28;20092;-79
2023/05/11 07:00:55;;;;;;;25.10;17.20;;;12.70;99.90;;;;;;5013336;28;20050;-79
2023/05/11 07:03:21;;;;;;;23.58;17.25;;;12.70;99.90;;;;;;4979630;28;20050;-79
2023/05/11 07:05:47;;;;;;;22.55;14.30;;;12.70;99.90;;;;;;5012995;28;20057;-79
2023/05/11 07:08:12;;;;;;;21.13;14.02;;;12.70;99.90;;;;;;5013013;28;20050;-80
2023/05/11 07:10:38;;;;;;;19.02;12.38;;;12.80;99.90;;;;;;4995325;28;20443;-79
2023/05/11 07:13:04;;;;;;;18.35;11.93;;;12.80;99.90;;;;;;4995533;28;20473;-79
2023/05/11 07:15:30;;;;;;;18.50;13.05;;;12.80;99.90;;;;;;4979101;28;20108;-78
2023/05/11 07:17:55;;;;;;;20.77;13.98;;;12.90;99.90;;;;;;5013163;28;20046;-79
2023/05/11 07:20:21;;;;;;;17.10;12.52;;;12.90;99.90;;;;;;5012783;28;20180;-79
2023/05/11 07:22:47;;;;;;;23.05;13.57;;;12.90;99.90;;;;;;5012729;28;20046;-77
2023/05/11 07:25:12;;;;;;;22.90;16.08;;;12.90;99.90;;;;;;4994863;28;20058;-79
2023/05/11 07:27:38;;;;;;;22.20;15.07;;;12.80;99.90;;;;;;5012884;28;20137;-78
2023/05/11 07:30:04;;;;;;;19.85;13.88;;;12.80;99.90;;;;;;5013348;28;20477;-79
2023/05/11 07:32:31;;;;;;;18.30;13.07;;;12.90;99.90;;;;;;4994858;28;20041;-79
2023/05/11 07:34:56;;;;;;;19.27;13.23;;;12.90;99.90;;;;;;4995279;28;20054;-79
2023/05/11 07:37:22;;;;;;;22.38;14.10;;;13.00;99.90;;;;;;5012232;28;20050;-78
2023/05/11 07:39:48;;;;;;;17.15;11.77;;;13.10;99.90;;;;;;4995210;28;20060;-78
2023/05/11 07:42:14;;;;;;;18.88;13.18;;;13.20;99.90;;;;;;5014276;28;20062;-78
2023/05/11 07:44:39;;;;;;;17.63;12.85;;;13.20;99.90;;;;;;5016255;28;20061;-78
2023/05/11 07:47:05;;;;;;;19.40;12.35;;;13.20;99.90;;;;;;5016819;28;20164;-78
2023/05/11 07:49:31;;;;;;;18.67;13.55;;;13.20;99.90;;;;;;5016590;28;20444;-79
2023/05/11 07:51:56;;;;;;;17.83;14.25;;;13.10;99.90;;;;;;5016348;28;20511;-78
2023/05/11 07:54:22;;;;;;;23.65;14.50;;;13.20;99.90;;;;;;5016303;28;20447;-78
2023/05/11 07:56:49;;;;;;;16.42;12.45;;;13.20;99.90;;;;;;5016689;28;20050;-78
2023/05/11 07:59:14;;;;;;;15.63;11.70;;;13.20;99.90;;;;;;5016290;28;20072;-78
2023/05/11 08:01:40;;;;;;;14.52;11.27;;;13.30;99.90;;;;;;4999493;28;20136;-73
2023/05/11 08:04:06;;;;;;;16.88;11.70;;;13.30;99.90;;;;;;4998747;28;20045;-73
2023/05/11 08:06:32;;;;;;;17.30;12.93;;;13.30;99.90;;;;;;4999060;28;20137;-73
2023/05/11 08:08:57;;;;;;;19.90;13.23;;;13.40;99.90;;;;;;5016265;28;20100;-79
2023/05/11 08:11:23;;;;;;;15.02;10.77;;;13.40;99.90;;;;;;4998971;28;20443;-78
2023/05/11 08:13:49;;;;;;;15.60;12.55;;;13.40;99.90;;;;;;5015985;28;20437;-78
2023/05/11 08:16:14;;;;;;;19.05;12.25;;;13.40;99.90;;;;;;5015934;28;20482;-80
2023/05/11 08:18:40;;;;;;;16.50;11.73;;;13.40;99.90;;;;;;5015581;28;20493;-79
2023/05/11 08:21:06;;;;;;;15.38;10.65;;;13.40;99.90;;;;;;5016121;28;20046;-79
2023/05/11 08:23:32;;;;;;;15.75;10.85;;;13.40;99.90;;;;;;4998561;28;20084;-78
2023/05/11 08:25:58;;;;;;;17.08;11.13;;;13.50;99.90;;;;;;5015814;28;20054;-79
2023/05/11 08:28:24;;;;;;;15.50;11.30;;;13.50;99.90;;;;;;5016222;28;20077;-79
2023/05/11 08:30:54;;;;;;;16.45;10.23;;;13.50;99.90;;;;;;5015611;28;20477;-79
2023/05/11 08:33:20;;;;;;;13.45;10.80;;;13.60;99.90;;;;;;4998632;28;20057;-79
2023/05/11 08:35:45;;;;;;;12.57;11.05;;;13.60;99.90;;;;;;4982162;28;20050;-79
2023/05/11 08:38:12;;;;;;;14.40;10.75;;;13.70;99.90;;;;;;4998196;28;20076;-78
2023/05/11 08:40:42;;;;;;;15.18;10.95;;;13.80;99.90;;;;;;5015507;28;20046;-80
2023/05/11 08:43:09;;;;;;;13.15;9.57;;;13.80;99.90;;;;;;5015048;28;20061;-79
2023/05/11 08:45:36;;;;;;;18.15;10.15;;;13.80;99.90;;;;;;5015365;28;20050;-79
2023/05/11 08:48:03;;;;;;;18.00;11.63;;;13.90;99.90;;;;;;4998263;28;20133;-79
2023/05/11 08:50:28;;;;;;;16.80;10.25;;;14.00;99.90;;;;;;5015365;28;20474;-79
2023/05/11 08:52:54;;;;;;;15.52;10.07;;;14.00;99.90;;;;;;4997827;28;20104;-78
2023/05/11 08:55:22;;;;;;;12.38;9.02;;;14.00;99.90;;;;;;5015271;28;20058;-78
2023/05/11 08:57:50;;;;;;;15.82;10.02;;;14.00;99.90;;;;;;5015295;28;20042;-79
2023/05/11 09:00:16;;;;;;;15.07;9.50;;;14.00;99.90;;;;;;5015258;28;20046;-79
2023/05/11 09:02:42;;;;;;;13.65;9.52;;;14.00;99.90;;;;;;5015177;28;20146;-78
2023/05/11 09:05:09;;;;;;;15.90;10.70;;;14.00;99.90;;;;;;5015029;28;20140;-79
2023/05/11 09:07:39;;;;;;;14.35;9.60;;;14.00;99.90;;;;;;5015576;28;20467;-79
2023/05/11 09:10:05;;;;;;;13.48;9.80;;;13.90;99.90;;;;;;4998205;28;20069;-78
2023/05/11 09:12:31;;;;;;;12.05;9.48;;;14.10;99.90;;;;;;5014897;28;20050;-80
2023/05/11 09:14:56;;;;;;;13.70;10.20;;;14.20;99.90;;;;;;5014652;28;20050;-79
2023/05/11 09:17:25;;;;;;;14.35;10.35;;;14.10;99.90;;;;;;5014806;28;20140;-79
2023/05/11 09:20:04;;;;;;;12.77;9.52;;;14.20;99.90;;;;;;5014707;28;20102;-79
2023/05/11 09:22:32;;;;;;;12.82;9.52;;;14.20;99.90;;;;;;4997356;28;20057;-79
2023/05/11 09:25:00;;;;;;;13.27;9.65;;;14.20;99.90;;;;;;4997531;28;20072;-79
2023/05/11 09:27:26;;;;;;;14.00;8.68;;;14.10;99.90;;;;;;5014872;28;20050;-79
2023/05/11 09:29:55;;;;;;;12.07;8.93;;;14.10;99.90;;;;;;5014702;28;20129;-79
2023/05/11 09:32:20;;;;;;;11.70;9.40;;;14.20;99.90;;;;;;5014613;28;20050;-80
2023/05/11 09:34:46;;;;;;;12.68;9.18;;;14.20;99.90;;;;;;4997490;28;20321;-80
2023/05/11 09:37:17;;;;;;;14.02;9.38;;;14.20;99.90;;;;;;4996737;28;20041;-79
2023/05/11 09:39:43;;;;;;;12.75;9.20;;;14.30;99.90;;;;;;5014360;28;20053;-81
2023/05/11 09:42:20;;;;;;;11.63;9.43;;;14.10;99.90;;;;;;5014406;28;20143;-80
2023/05/11 09:44:46;;;;;;;13.60;9.88;;;14.20;99.90;;;;;;5014584;28;20085;-81
2023/05/11 09:47:17;;;;;;;13.38;9.77;;;14.30;99.90;;;;;;5014255;28;20045;-81
2023/05/11 09:49:45;;;;;;;10.90;9.23;;;14.40;99.90;;;;;;5014100;28;20057;-76
2023/05/11 09:52:15;;;;;;;11.60;8.80;;;14.40;99.90;;;;;;5014006;28;20045;-76
2023/05/11 09:54:46;;;;;;;11.95;9.82;;;14.50;99.90;;;;;;4996449;28;20425;-80
2023/05/11 09:57:27;;;;;;;13.57;9.35;;;14.60;99.90;;;;;;4996954;28;20049;-79
2023/05/11 09:59:53;;;;;;;12.38;9.35;;;14.60;99.90;;;;;;4996785;28;20214;-81
2023/05/11 10:02:25;;;;;;;11.68;9.43;;;14.60;99.90;;;;;;5014125;28;20042;-80
2023/05/11 10:04:53;;;;;;;12.13;8.93;;;14.70;99.90;;;;;;4996314;28;20128;-80
2023/05/11 10:07:28;;;;;;;11.05;8.43;;;14.70;99.90;;;;;;4996395;28;20134;-80
2023/05/11 10:10:04;;;;;;;11.32;8.48;;;14.90;99.90;;;;;;4996372;28;20045;-82
2023/05/11 10:12:32;;;;;;;9.45;8.23;;;14.90;99.90;;;;;;5013620;28;20042;-80
2023/05/11 10:15:02;;;;;;;14.95;8.35;;;14.90;99.90;;;;;;4996826;28;20076;-79
2023/05/11 10:17:29;;;;;;;12.98;9.20;;;15.00;99.90;;;;;;4997444;28;20053;-79
2023/05/11 10:19:56;;;;;;;12.43;8.73;;;15.00;99.90;;;;;;4998667;28;20578;-81
2023/05/11 10:22:24;;;;;;;14.95;9.57;;;15.10;99.90;;;;;;4980184;28;20049;-82
2023/05/11 10:24:50;;;;;;;13.27;8.82;;;15.10;99.90;;;;;;5013614;28;20050;-82
2023/05/11 10:27:17;;;;;;;10.82;8.63;;;15.20;99.90;;;;;;4996745;28;20077;-83
2023/05/11 10:29:44;;;;;;;10.45;8.25;;;15.40;99.90;;;;;;4996265;28;20113;-82
2023/05/11 10:32:10;;;;;;;13.48;8.18;;;15.60;99.90;;;;;;5013029;28;20121;-82
2023/05/11 10:34:38;;;;;;;12.32;7.82;;;15.80;99.90;;;;;;4996044;28;20050;-82
2023/05/11 10:37:05;;;;;;;10.93;8.40;;;16.00;99.90;;;;;;4980080;28;20057;-82
2023/05/11 10:39:31;;;;;;;10.13;7.50;;;16.20;99.90;;;;;;5013201;28;20050;-79
2023/05/11 10:42:09;;;;;;;11.52;8.00;;;16.30;99.90;;;;;;5013162;28;20087;-80
2023/05/11 10:44:49;;;;;;;10.48;6.95;;;16.70;99.90;;;;;;5012738;28;20066;-81
2023/05/11 10:47:51;;;;;;;10.77;8.38;;;17.30;99.90;;;;;;4996029;28;20448;-78
2023/05/11 10:50:37;;;;;;;9.98;7.53;;;17.00;99.90;;;;;;4995983;28;20497;-80
2023/05/11 10:53:12;;;;;;;10.30;7.18;;;17.30;99.90;;;;;;4975636;28;20128;-81
2023/05/11 10:55:37;;;;;;;9.43;6.57;;;17.40;99.90;;;;;;4995596;28;20406;-81
2023/05/11 10:58:10;;;;;;;9.68;6.70;;;17.30;99.90;;;;;;4995290;28;20054;-79
2023/05/11 11:00:55;;;;;;;;;;;17.40;99.90;;;;;;5013246;28;20049;-79
2023/05/11 11:03:21;;;;;;;8.68;6.70;;;17.10;99.90;;;;;;4995217;28;20285;-79
2023/05/11 11:05:47;;;;;;;8.30;6.88;;;17.20;99.90;;;;;;4995385;28;20117;-78
2023/05/11 11:08:12;;;;;;;9.52;6.93;;;17.40;99.90;;;;;;5012690;28;20049;-82
2023/05/11 11:10:45;;;;;;;11.00;7.95;;;17.20;99.90;;;;;;5012834;28;20466;-81
2023/05/11 11:13:15;;;;;;;7.72;5.72;;;17.20;99.90;;;;;;4979235;28;20062;-80
2023/05/11 11:15:56;;;;;;;9.60;6.45;;;17.20;99.90;;;;;;4995905;28;20124;-81
2023/05/11 11:18:23;;;;;;;7.60;5.60;;;17.10;99.90;;;;;;4995510;28;20129;-79
2023/05/11 11:20:53;;;;;;;7.88;5.90;;;16.80;99.90;;;;;;4995739;28;20447;-82
2023/05/11 11:23:41;;;;;;;7.10;5.30;;;16.90;99.90;;;;;;4995884;28;20054;-84
2023/05/11 11:26:09;;;;;;;7.72;5.65;;;16.90;99.90;;;;;;4995563;28;20164;-83
2023/05/11 11:28:52;;;;;;;9.07;6.57;;;17.00;99.90;;;;;;4995511;28;20081;-85
2023/05/11 11:31:26;;;;;;;7.65;6.18;;;16.80;99.90;;;;;;4995178;28;20534;-80
2023/05/11 11:33:57;;;;;;;6.60;4.97;;;17.00;99.90;;;;;;5012659;28;20501;-76
2023/05/11 11:36:54;;;;;;;5.20;4.68;;;17.10;99.90;;;;;;4995621;28;20112;-76
2023/05/11 11:39:43;;;;;;;9.48;5.07;;;17.40;99.90;;;;;;5012266;28;20495;-79
2023/05/11 11:42:17;;;;;;;5.03;4.30;;;17.50;99.90;;;;;;5011930;28;20046;-78
2023/05/11 11:44:44;;;;;;;6.53;4.45;;;17.60;99.90;;;;;;5012655;28;20050;-75
2023/05/11 11:47:13;;;;;;;6.28;4.20;;;17.70;99.90;;;;;;4994672;28;20045;-75
2023/05/11 11:49:45;;;;;;;6.88;4.63;;;17.80;99.90;;;;;;5012621;28;20133;-71
2023/05/11 11:52:12;;;;;;;5.85;3.92;;;17.90;99.90;;;;;;4994867;28;20104;-73
2023/05/11 11:54:39;;;;;;;7.30;3.70;;;17.80;99.90;;;;;;5012158;28;20050;-75
2023/05/11 11:57:34;;;;;;;6.15;3.78;;;17.80;99.90;;;;;;4994958;28;20505;-79
2023/05/11 12:00:06;;;;;;;7.03;3.80;;;17.80;99.90;;;;;;5011753;28;20058;-81
2023/05/11 12:02:33;;;;;;;4.88;3.00;;;17.50;99.90;;;;;;5013038;28;20041;-70
2023/05/11 12:05:13;;;;;;;4.03;3.10;;;17.60;99.90;;;;;;4995004;28;20136;-72
2023/05/11 12:07:44;;;;;;;5.72;2.28;;;17.60;99.90;;;;;;5012410;28;20046;-74
2023/05/11 12:10:12;;;;;;;3.47;2.75;;;17.60;99.90;;;;;;5012908;28;20053;-79
2023/05/11 12:12:39;;;;;;;2.80;2.00;;;17.70;99.90;;;;;;4994888;28;20050;-72
2023/05/11 12:15:06;;;;;;;4.38;2.47;;;17.80;99.90;;;;;;5012235;28;20050;-73
2023/05/11 12:17:35;;;;;;;3.88;2.65;;;17.80;99.90;;;;;;5011997;28;20054;-73
2023/05/11 12:20:13;;;;;;;2.65;2.22;;;17.60;99.90;;;;;;5012083;28;20060;-73
2023/05/11 12:22:39;;;;;;;3.03;2.70;;;17.60;99.90;;;;;;5012963;28;20069;-73
2023/05/11 12:25:06;;;;;;;3.30;3.00;;;17.40;99.90;;;;;;5012054;28;20095;-73
2023/05/11 12:27:33;;;;;;;3.20;2.00;;;17.40;99.90;;;;;;5012006;28;20049;-72
2023/05/11 12:29:59;;;;;;;3.15;2.47;;;17.80;99.90;;;;;;5014875;28;20480;-72
2023/05/11 12:32:30;;;;;;;3.67;2.17;;;17.60;99.90;;;;;;4998316;28;20050;-73
2023/05/11 12:35:03;;;;;;;2.75;2.15;;;17.70;99.90;;;;;;4998361;28;20050;-72
2023/05/11 12:37:30;;;;;;;2.58;2.38;;;17.60;99.90;;;;;;5015653;28;20042;-72